createdAt,value
2018-12-25T00:00:16.696Z,99.99
2018-12-25T00:01:16.660Z,99.99
2018-12-25T00:02:16.645Z,99.99
2018-12-25T00:03:16.650Z,99.99
2018-12-25T00:04:16.617Z,99.99
2018-12-25T00:05:16.586Z,99.99
2018-12-25T00:06:16.576Z,99.99
2018-12-25T00:07:16.794Z,99.99
2018-12-25T00:08:16.530Z,99.99
2018-12-25T00:09:16.507Z,99.99
2018-12-25T00:10:16.519Z,99.99
2018-12-25T00:11:16.477Z,99.99
2018-12-25T00:12:16.454Z,99.99
2018-12-25T00:13:16.437Z,99.99
2018-12-25T00:14:16.410Z,99.99
2018-12-25T00:15:16.541Z,99.99
2018-12-25T00:16:16.381Z,99.99
2018-12-25T00:17:16.358Z,99.99
2018-12-25T00:18:16.350Z,99.99
2018-12-25T00:19:16.314Z,99.99
2018-12-25T00:20:16.294Z,99.99
2018-12-25T00:21:16.321Z,99.99
2018-12-25T00:22:16.254Z,99.99
2018-12-25T00:23:16.240Z,99.99
2018-12-25T00:24:16.220Z,99.99
2018-12-25T00:25:16.211Z,99.99
2018-12-25T00:26:16.214Z,99.99
2018-12-25T00:27:16.169Z,99.99
2018-12-25T00:28:16.179Z,99.99
2018-12-25T00:29:16.128Z,99.99
2018-12-25T00:30:16.106Z,99.99
2018-12-25T00:31:16.094Z,99.99
2018-12-25T00:32:16.074Z,99.99
2018-12-25T00:33:16.095Z,99.99
2018-12-25T00:34:16.027Z,99.99
2018-12-25T00:35:16.010Z,99.99
2018-12-25T00:36:16.014Z,99.99
2018-12-25T00:37:15.977Z,99.99
2018-12-25T00:38:15.985Z,99.99
2018-12-25T00:39:15.936Z,99.99
2018-12-25T00:40:15.929Z,99.99
2018-12-25T00:41:15.909Z,99.99
2018-12-25T00:42:15.900Z,99.99
2018-12-25T00:43:15.864Z,99.99
2018-12-25T00:44:15.845Z,99.99
2018-12-25T00:45:15.820Z,99.99
2018-12-25T00:46:15.798Z,99.99
2018-12-25T00:47:15.844Z,99.99
2018-12-25T00:48:15.771Z,99.99
2018-12-25T00:49:15.757Z,99.99
2018-12-25T00:50:15.721Z,99.99
2018-12-25T00:51:15.698Z,99.99
2018-12-25T00:52:15.678Z,99.99
2018-12-25T00:53:15.702Z,99.99
2018-12-25T00:54:15.639Z,99.99
2018-12-25T00:55:15.632Z,99.99
2018-12-25T00:56:15.618Z,99.99
2018-12-25T00:57:15.593Z,99.99
2018-12-25T00:58:15.620Z,99.99
2018-12-25T00:59:15.553Z,99.99
2018-12-25T01:00:15.530Z,99.99
2018-12-25T01:01:15.515Z,99.99
2018-12-25T01:02:15.501Z,99.99
2018-12-25T01:03:15.480Z,99.99
2018-12-25T01:04:15.477Z,99.99
2018-12-25T01:05:15.440Z,99.99
2018-12-25T01:06:15.423Z,99.99
2018-12-25T01:07:15.408Z,99.99
2018-12-25T01:08:15.411Z,99.99
2018-12-25T01:09:15.391Z,99.99
2018-12-25T01:10:15.347Z,99.99
2018-12-25T01:11:15.327Z,99.99
2018-12-25T01:12:15.312Z,99.99
2018-12-25T01:13:15.290Z,99.99
2018-12-25T01:14:15.288Z,99.99
2018-12-25T01:15:15.248Z,99.99
2018-12-25T01:16:15.241Z,99.99
2018-12-25T01:17:15.217Z,99.99
2018-12-25T01:18:15.182Z,99.99
2018-12-25T01:19:23.092Z,99.99
2018-12-25T01:20:15.148Z,99.99
2018-12-25T01:21:15.136Z,99.99
2018-12-25T01:22:15.103Z,99.99
2018-12-25T01:23:15.093Z,99.99
2018-12-25T01:24:15.113Z,99.99
2018-12-25T01:25:15.056Z,99.99
2018-12-25T01:26:15.057Z,99.99
2018-12-25T01:27:15.017Z,99.99
2018-12-25T01:28:14.999Z,99.99
2018-12-25T01:29:14.989Z,99.99
2018-12-25T01:30:14.949Z,99.99
2018-12-25T01:31:14.944Z,99.99
2018-12-25T01:32:14.978Z,99.99
2018-12-25T01:33:14.902Z,99.99
2018-12-25T01:34:14.891Z,99.99
2018-12-25T01:35:14.860Z,99.99
2018-12-25T01:36:14.836Z,99.99
2018-12-25T01:37:14.832Z,99.99
2018-12-25T01:38:14.837Z,99.99
2018-12-25T01:39:14.781Z,99.99
2018-12-25T01:40:14.784Z,99.99
2018-12-25T01:41:14.751Z,99.99
2018-12-25T01:42:14.751Z,99.99
2018-12-25T01:43:14.704Z,99.99
2018-12-25T01:44:14.701Z,99.99
2018-12-25T01:45:14.678Z,99.99
2018-12-25T01:46:14.643Z,99.99
2018-12-25T01:47:14.667Z,99.99
2018-12-25T01:48:14.608Z,99.99
2018-12-25T01:49:14.607Z,99.99
2018-12-25T01:50:14.579Z,99.99
2018-12-25T01:51:14.554Z,99.99
2018-12-25T01:52:14.546Z,99.99
2018-12-25T01:53:14.593Z,99.99
2018-12-25T01:54:14.491Z,99.99
2018-12-25T01:55:14.491Z,99.99
2018-12-25T01:56:14.469Z,99.99
2018-12-25T01:57:14.440Z,99.99
2018-12-25T01:58:14.424Z,99.99
2018-12-25T01:59:14.425Z,99.99
2018-12-25T02:00:14.396Z,99.99
2018-12-25T02:01:14.367Z,99.99
2018-12-25T02:02:14.358Z,99.99
2018-12-25T02:03:14.323Z,99.99
2018-12-25T02:04:14.365Z,99.99
2018-12-25T02:05:14.288Z,99.99
2018-12-25T02:06:14.274Z,99.99
2018-12-25T02:07:14.246Z,99.99
2018-12-25T02:08:14.228Z,99.99
2018-12-25T02:09:14.224Z,99.99
2018-12-25T02:10:14.228Z,99.99
2018-12-25T02:11:14.170Z,99.99
2018-12-25T02:12:14.149Z,99.99
2018-12-25T02:13:14.131Z,99.99
2018-12-25T02:14:14.117Z,99.99
2018-12-25T02:15:14.140Z,99.99
2018-12-25T02:16:14.079Z,99.99
2018-12-25T02:17:14.066Z,99.99
2018-12-25T02:18:14.045Z,99.99
2018-12-25T02:19:14.027Z,99.99
2018-12-25T02:20:14.147Z,99.99
2018-12-25T02:21:13.985Z,99.99
2018-12-25T02:22:13.971Z,99.99
2018-12-25T02:23:13.952Z,99.99
2018-12-25T02:24:13.931Z,99.99
2018-12-25T02:25:13.913Z,99.99
2018-12-25T02:26:13.885Z,99.99
2018-12-25T02:27:13.861Z,99.99
2018-12-25T02:28:13.845Z,99.99
2018-12-25T02:29:13.829Z,99.99
2018-12-25T02:30:13.808Z,99.99
2018-12-25T02:31:13.819Z,99.99
2018-12-25T02:32:13.783Z,99.99
2018-12-25T02:33:13.746Z,99.99
2018-12-25T02:34:13.743Z,99.99
2018-12-25T02:35:13.720Z,99.99
2018-12-25T02:36:13.851Z,99.99
2018-12-25T02:37:13.670Z,99.99
2018-12-25T02:38:13.674Z,99.99
2018-12-25T02:39:13.629Z,99.99
2018-12-25T02:40:13.633Z,99.99
2018-12-25T02:41:13.612Z,99.99
2018-12-25T02:42:13.606Z,99.99
2018-12-25T02:43:13.565Z,99.99
2018-12-25T02:44:13.545Z,99.99
2018-12-25T02:45:13.525Z,99.99
2018-12-25T02:46:13.508Z,99.99
2018-12-25T02:47:13.482Z,99.99
2018-12-25T02:48:13.521Z,99.99
2018-12-25T02:49:13.447Z,99.99
2018-12-25T02:50:13.436Z,99.99
2018-12-25T02:51:13.401Z,99.99
2018-12-25T02:52:13.394Z,99.99
2018-12-25T02:53:13.426Z,99.99
2018-12-25T02:54:13.347Z,99.99
2018-12-25T02:55:13.331Z,99.99
2018-12-25T02:56:13.322Z,99.99
2018-12-25T02:57:13.298Z,99.99
2018-12-25T02:58:13.275Z,99.99
2018-12-25T02:59:13.252Z,99.99
2018-12-25T03:00:13.229Z,99.99
2018-12-25T03:01:13.219Z,99.99
2018-12-25T03:02:13.205Z,99.99
2018-12-25T03:03:13.190Z,99.99
2018-12-25T03:04:13.192Z,99.99
2018-12-25T03:05:13.149Z,99.99
2018-12-25T03:06:13.114Z,99.99
2018-12-25T03:07:13.136Z,99.99
2018-12-25T03:08:13.075Z,99.99
2018-12-25T03:09:13.060Z,99.99
2018-12-25T03:10:13.048Z,99.99
2018-12-25T03:11:13.058Z,99.99
2018-12-25T03:12:13.013Z,99.99
2018-12-25T03:13:12.981Z,99.99
2018-12-25T03:14:12.966Z,99.99
2018-12-25T03:15:12.946Z,99.99
2018-12-25T03:16:12.938Z,99.99
2018-12-25T03:17:12.901Z,99.99
2018-12-25T03:18:12.890Z,99.99
2018-12-25T03:19:12.878Z,99.99
2018-12-25T03:20:12.869Z,99.99
2018-12-25T03:21:12.840Z,99.99
2018-12-25T03:22:12.858Z,99.99
2018-12-25T03:23:12.794Z,99.99
2018-12-25T03:24:12.788Z,99.99
2018-12-25T03:25:12.753Z,99.99
2018-12-25T03:26:12.740Z,99.99
2018-12-25T03:27:12.749Z,99.99
2018-12-25T03:28:12.790Z,99.99
2018-12-25T03:29:12.678Z,99.99
2018-12-25T03:30:12.661Z,99.99
2018-12-25T03:31:12.789Z,99.99
2018-12-25T03:32:12.630Z,99.99
2018-12-25T03:33:12.605Z,99.99
2018-12-25T03:34:12.586Z,99.99
2018-12-25T03:35:12.554Z,99.99
2018-12-25T03:36:12.551Z,99.99
2018-12-25T03:37:12.555Z,99.99
2018-12-25T03:38:12.505Z,99.99
2018-12-25T03:39:12.531Z,99.99
2018-12-25T03:40:12.470Z,99.99
2018-12-25T03:41:12.450Z,99.99
2018-12-25T03:42:12.431Z,99.99
2018-12-25T03:43:12.445Z,99.99
2018-12-25T03:44:12.394Z,99.99
2018-12-25T03:45:12.372Z,99.99
2018-12-25T03:46:12.346Z,99.99
2018-12-25T03:47:12.340Z,99.99
2018-12-25T03:48:12.368Z,99.99
2018-12-25T03:49:12.303Z,99.99
2018-12-25T03:50:12.281Z,99.99
2018-12-25T03:51:12.263Z,99.99
2018-12-25T03:52:12.247Z,99.99
2018-12-25T03:53:12.223Z,99.99
2018-12-25T03:54:12.244Z,99.99
2018-12-25T03:55:12.178Z,99.99
2018-12-25T03:56:12.169Z,99.99
2018-12-25T03:57:12.147Z,99.99
2018-12-25T03:58:12.123Z,99.99
2018-12-25T03:59:12.108Z,99.99
2018-12-25T04:00:12.088Z,99.99
2018-12-25T04:01:12.106Z,99.99
2018-12-25T04:02:12.049Z,99.99
2018-12-25T04:03:12.025Z,99.99
2018-12-25T04:04:12.035Z,99.99
2018-12-25T04:05:11.994Z,99.99
2018-12-25T04:06:11.971Z,99.99
2018-12-25T04:07:11.955Z,99.99
2018-12-25T04:08:11.923Z,99.99
2018-12-25T04:09:12.049Z,99.99
2018-12-25T04:10:11.886Z,99.99
2018-12-25T04:11:11.872Z,99.99
2018-12-25T04:12:11.861Z,99.99
2018-12-25T04:13:11.843Z,99.99
2018-12-25T04:14:11.820Z,99.99
2018-12-25T04:15:11.818Z,99.99
2018-12-25T04:16:11.779Z,99.99
2018-12-25T04:17:11.774Z,99.99
2018-12-25T04:18:11.741Z,99.99
2018-12-25T04:19:11.728Z,99.99
2018-12-25T04:20:19.793Z,99.99
2018-12-25T04:21:11.681Z,99.99
2018-12-25T04:22:11.656Z,99.99
2018-12-25T04:23:11.652Z,99.99
2018-12-25T04:24:11.638Z,99.99
2018-12-25T04:25:11.603Z,99.99
2018-12-25T04:26:11.588Z,99.99
2018-12-25T04:27:11.565Z,99.99
2018-12-25T04:28:11.551Z,99.99
2018-12-25T04:29:11.561Z,99.99
2018-12-25T04:30:11.510Z,99.99
2018-12-25T04:31:11.503Z,99.99
2018-12-25T04:32:11.476Z,99.99
2018-12-25T04:33:11.443Z,99.99
2018-12-25T04:34:11.537Z,99.99
2018-12-25T04:35:11.422Z,99.99
2018-12-25T04:36:11.544Z,99.99
2018-12-25T04:37:11.379Z,99.99
2018-12-25T04:38:11.352Z,99.99
2018-12-25T04:39:11.342Z,99.99
2018-12-25T04:40:11.312Z,99.99
2018-12-25T04:41:11.308Z,99.99
2018-12-25T04:42:11.434Z,99.99
2018-12-25T04:43:11.256Z,99.99
2018-12-25T04:44:11.245Z,99.99
2018-12-25T04:45:11.216Z,99.99
2018-12-25T04:46:11.201Z,99.99
2018-12-25T04:47:11.186Z,99.99
2018-12-25T04:48:11.162Z,99.99
2018-12-25T04:49:11.160Z,99.99
2018-12-25T04:50:11.125Z,99.99
2018-12-25T04:51:11.104Z,99.99
2018-12-25T04:52:11.086Z,99.99
2018-12-25T04:53:11.067Z,99.99
2018-12-25T04:54:11.063Z,99.99
2018-12-25T04:55:11.035Z,99.99
2018-12-25T04:56:11.017Z,99.99
2018-12-25T04:57:10.995Z,99.99
2018-12-25T04:58:11.001Z,99.99
2018-12-25T04:59:10.961Z,99.99
2018-12-25T05:00:10.966Z,99.99
2018-12-25T05:01:10.916Z,99.99
2018-12-25T05:02:10.901Z,99.99
2018-12-25T05:03:10.915Z,99.99
2018-12-25T05:04:10.862Z,99.99
2018-12-25T05:05:10.845Z,99.99
2018-12-25T05:06:10.827Z,99.99
2018-12-25T05:07:10.809Z,99.99
2018-12-25T05:08:10.915Z,99.99
2018-12-25T05:09:10.770Z,99.99
2018-12-25T05:10:10.750Z,99.99
2018-12-25T05:11:10.734Z,99.99
2018-12-25T05:12:10.709Z,99.99
2018-12-25T05:13:10.741Z,99.99
2018-12-25T05:14:10.690Z,99.99
2018-12-25T05:15:10.654Z,99.99
2018-12-25T05:16:10.636Z,99.99
2018-12-25T05:17:10.605Z,99.99
2018-12-25T05:18:10.594Z,99.99
2018-12-25T05:19:10.624Z,99.99
2018-12-25T05:20:10.666Z,99.99
2018-12-25T05:21:10.582Z,99.99
2018-12-25T05:22:10.508Z,99.99
2018-12-25T05:23:10.493Z,99.99
2018-12-25T05:24:10.484Z,99.99
2018-12-25T05:25:10.469Z,99.99
2018-12-25T05:26:10.448Z,99.99
2018-12-25T05:27:10.447Z,99.99
2018-12-25T05:28:10.398Z,99.99
2018-12-25T05:29:10.390Z,99.99
2018-12-25T05:30:10.389Z,99.99
2018-12-25T05:31:10.337Z,99.99
2018-12-25T05:32:10.317Z,99.99
2018-12-25T05:33:10.309Z,99.99
2018-12-25T05:34:10.288Z,99.99
2018-12-25T05:35:10.443Z,99.99
2018-12-25T05:36:10.240Z,99.99
2018-12-25T05:37:10.223Z,99.99
2018-12-25T05:38:10.216Z,99.99
2018-12-25T05:39:10.194Z,99.99
2018-12-25T05:40:10.178Z,99.99
2018-12-25T05:41:10.265Z,99.99
2018-12-25T05:42:10.134Z,99.99
2018-12-25T05:43:10.113Z,99.99
2018-12-25T05:44:10.106Z,99.99
2018-12-25T05:45:10.078Z,99.72
2018-12-25T05:46:10.080Z,99.72
2018-12-25T05:47:10.031Z,99.82
2018-12-25T05:48:10.021Z,99.99
2018-12-25T05:49:10.000Z,99.82
2018-12-25T05:50:09.976Z,99.63
2018-12-25T05:51:10.026Z,99.53
2018-12-25T05:52:09.946Z,99.53
2018-12-25T05:53:09.922Z,99.82
2018-12-25T05:54:09.896Z,99.82
2018-12-25T05:55:09.892Z,99.91
2018-12-25T05:56:09.858Z,99.99
2018-12-25T05:57:09.887Z,99.99
2018-12-25T05:58:09.826Z,99.82
2018-12-25T05:59:09.799Z,99.53
2018-12-25T06:00:09.788Z,99.44
2018-12-25T06:01:09.801Z,99.53
2018-12-25T06:02:09.753Z,99.53
2018-12-25T06:03:09.730Z,99.99
2018-12-25T06:04:09.719Z,99.91
2018-12-25T06:05:09.688Z,99.82
2018-12-25T06:06:09.664Z,99.63
2018-12-25T06:07:09.683Z,99.63
2018-12-25T06:08:09.637Z,99.63
2018-12-25T06:09:09.622Z,99.53
2018-12-25T06:10:09.596Z,99.34
2018-12-25T06:11:09.572Z,99.34
2018-12-25T06:12:09.581Z,99.44
2018-12-25T06:13:09.536Z,99.44
2018-12-25T06:14:09.559Z,99.44
2018-12-25T06:15:09.502Z,99.53
2018-12-25T06:16:09.559Z,99.72
2018-12-25T06:17:09.459Z,99.63
2018-12-25T06:18:09.450Z,99.72
2018-12-25T06:19:09.497Z,99.72
2018-12-25T06:20:09.399Z,99.63
2018-12-25T06:21:09.392Z,99.53
2018-12-25T06:22:09.363Z,99.82
2018-12-25T06:23:09.352Z,99.63
2018-12-25T06:24:09.326Z,99.63
2018-12-25T06:25:09.344Z,99.82
2018-12-25T06:26:09.296Z,99.72
2018-12-25T06:27:09.269Z,99.72
2018-12-25T06:28:09.248Z,99.82
2018-12-25T06:29:09.258Z,99.53
2018-12-25T06:30:09.226Z,99.53
2018-12-25T06:31:09.201Z,99.53
2018-12-25T06:32:09.182Z,99.53
2018-12-25T06:33:09.158Z,99.53
2018-12-25T06:34:09.139Z,99.63
2018-12-25T06:35:09.116Z,99.72
2018-12-25T06:36:09.134Z,99.72
2018-12-25T06:37:09.110Z,99.72
2018-12-25T06:38:09.063Z,99.91
2018-12-25T06:39:09.048Z,99.99
2018-12-25T06:40:09.012Z,99.99
2018-12-25T06:41:09.008Z,99.99
2018-12-25T06:42:09.128Z,99.99
2018-12-25T06:43:08.972Z,99.99
2018-12-25T06:44:08.946Z,99.99
2018-12-25T06:45:08.920Z,99.99
2018-12-25T06:46:08.899Z,99.99
2018-12-25T06:47:08.882Z,99.99
2018-12-25T06:48:08.878Z,99.99
2018-12-25T06:49:08.986Z,99.99
2018-12-25T06:50:08.837Z,99.99
2018-12-25T06:51:08.818Z,99.99
2018-12-25T06:52:08.792Z,99.82
2018-12-25T06:53:08.783Z,99.72
2018-12-25T06:54:08.750Z,99.82
2018-12-25T06:55:08.756Z,99.72
2018-12-25T06:56:08.720Z,99.63
2018-12-25T06:57:08.688Z,99.63
2018-12-25T06:58:08.682Z,99.72
2018-12-25T06:59:08.657Z,99.72
2018-12-25T07:00:08.668Z,99.91
2018-12-25T07:01:08.616Z,99.72
2018-12-25T07:02:08.597Z,99.82
2018-12-25T07:03:08.573Z,99.82
2018-12-25T07:04:08.572Z,99.72
2018-12-25T07:05:08.566Z,99.72
2018-12-25T07:06:08.526Z,99.82
2018-12-25T07:07:08.513Z,99.82
2018-12-25T07:08:08.478Z,99.91
2018-12-25T07:09:08.463Z,99.99
2018-12-25T07:10:08.468Z,99.99
2018-12-25T07:11:08.427Z,99.82
2018-12-25T07:12:08.403Z,99.82
2018-12-25T07:13:08.377Z,99.63
2018-12-25T07:14:08.378Z,99.53
2018-12-25T07:15:08.384Z,99.53
2018-12-25T07:16:08.333Z,99.72
2018-12-25T07:17:08.304Z,99.53
2018-12-25T07:18:08.292Z,99.53
2018-12-25T07:19:08.267Z,99.53
2018-12-25T07:20:08.266Z,99.53
2018-12-25T07:21:12.081Z,99.53
2018-12-25T07:22:08.210Z,99.53
2018-12-25T07:23:08.197Z,99.63
2018-12-25T07:24:08.178Z,99.82
2018-12-25T07:25:08.189Z,99.82
2018-12-25T07:26:08.147Z,99.72
2018-12-25T07:27:08.123Z,99.91
2018-12-25T07:28:08.107Z,99.82
2018-12-25T07:29:08.084Z,99.91
2018-12-25T07:30:08.061Z,99.72
2018-12-25T07:31:08.042Z,99.72
2018-12-25T07:32:08.034Z,99.72
2018-12-25T07:33:07.994Z,99.72
2018-12-25T07:34:07.985Z,99.82
2018-12-25T07:35:08.103Z,99.72
2018-12-25T07:36:09.509Z,99.63
2018-12-25T07:37:07.984Z,99.72
2018-12-25T07:38:07.906Z,99.82
2018-12-25T07:39:07.983Z,99.63
2018-12-25T07:40:07.861Z,99.72
2018-12-25T07:41:07.872Z,99.72
2018-12-25T07:42:07.830Z,99.63
2018-12-25T07:43:07.831Z,99.72
2018-12-25T07:44:07.799Z,99.91
2018-12-25T07:45:07.770Z,99.91
2018-12-25T07:46:07.768Z,99.82
2018-12-25T07:47:07.802Z,99.72
2018-12-25T07:48:08.217Z,99.63
2018-12-25T07:49:08.005Z,99.53
2018-12-25T07:50:07.812Z,99.72
2018-12-25T07:51:07.659Z,99.53
2018-12-25T07:52:07.643Z,99.72
2018-12-25T07:53:07.685Z,99.99
2018-12-25T07:54:07.603Z,99.72
2018-12-25T07:55:07.586Z,99.63
2018-12-25T07:56:07.564Z,99.63
2018-12-25T07:57:07.541Z,99.53
2018-12-25T07:58:07.525Z,99.53
2018-12-25T07:59:07.579Z,99.44
2018-12-25T08:00:07.495Z,99.53
2018-12-25T08:01:07.469Z,99.72
2018-12-25T08:02:07.449Z,99.53
2018-12-25T08:03:07.424Z,99.53
2018-12-25T08:04:07.416Z,99.25
2018-12-25T08:05:07.401Z,99.25
2018-12-25T08:06:07.368Z,99.06
2018-12-25T08:07:07.340Z,99.15
2018-12-25T08:08:07.328Z,98.96
2018-12-25T08:09:07.329Z,98.87
2018-12-25T08:10:07.296Z,98.77
2018-12-25T08:11:07.285Z,98.77
2018-12-25T08:12:07.246Z,98.96
2018-12-25T08:13:07.238Z,98.96
2018-12-25T08:14:07.209Z,99.06
2018-12-25T08:15:07.187Z,99.06
2018-12-25T08:16:07.168Z,99.25
2018-12-25T08:17:07.152Z,99.34
2018-12-25T08:18:07.169Z,99.25
2018-12-25T08:19:07.110Z,99.25
2018-12-25T08:20:07.108Z,99.25
2018-12-25T08:21:07.081Z,98.96
2018-12-25T08:22:07.189Z,98.87
2018-12-25T08:23:07.033Z,98.68
2018-12-25T08:24:07.028Z,98.77
2018-12-25T08:25:06.994Z,98.58
2018-12-25T08:26:06.986Z,98.39
2018-12-25T08:27:06.960Z,98.58
2018-12-25T08:28:07.988Z,98.30
2018-12-25T08:29:06.914Z,98.30
2018-12-25T08:30:06.965Z,98.21
2018-12-25T08:31:08.206Z,97.92
2018-12-25T08:32:07.635Z,97.54
2018-12-25T08:33:06.935Z,97.54
2018-12-25T08:34:06.873Z,97.35
2018-12-25T08:35:06.810Z,97.64
2018-12-25T08:36:06.803Z,97.54
2018-12-25T08:37:07.383Z,97.73
2018-12-25T08:38:06.740Z,97.73
2018-12-25T08:39:06.801Z,97.83
2018-12-25T08:40:06.719Z,97.83
2018-12-25T08:41:06.699Z,97.73
2018-12-25T08:42:06.666Z,97.73
2018-12-25T08:43:06.658Z,97.73
2018-12-25T08:44:06.642Z,97.64
2018-12-25T08:45:06.646Z,97.73
2018-12-25T08:46:06.991Z,97.92
2018-12-25T08:47:06.565Z,97.73
2018-12-25T08:48:06.576Z,97.64
2018-12-25T08:49:06.578Z,97.54
2018-12-25T08:50:06.514Z,97.54
2018-12-25T08:51:06.571Z,97.64
2018-12-25T08:52:06.843Z,97.54
2018-12-25T08:53:06.465Z,97.64
2018-12-25T08:54:06.850Z,97.83
2018-12-25T08:55:06.467Z,97.45
2018-12-25T08:56:06.402Z,97.07
2018-12-25T08:57:06.420Z,96.64
2018-12-25T08:58:06.370Z,96.36
2018-12-25T08:59:06.351Z,96.45
2018-12-25T09:00:06.328Z,96.55
2018-12-25T09:01:06.360Z,96.36
2018-12-25T09:02:06.293Z,96.45
2018-12-25T09:03:06.272Z,96.55
2018-12-25T09:04:06.266Z,96.73
2018-12-25T09:05:06.232Z,96.55
2018-12-25T09:06:06.215Z,96.64
2018-12-25T09:07:06.220Z,96.45
2018-12-25T09:08:06.301Z,96.64
2018-12-25T09:09:06.166Z,96.08
2018-12-25T09:10:06.149Z,96.17
2018-12-25T09:11:06.119Z,95.88
2018-12-25T09:12:06.100Z,96.17
2018-12-25T09:13:06.086Z,95.69
2018-12-25T09:14:06.102Z,95.41
2018-12-25T09:15:06.047Z,95.50
2018-12-25T09:16:06.027Z,95.50
2018-12-25T09:17:06.003Z,95.41
2018-12-25T09:18:05.993Z,95.69
2018-12-25T09:19:05.965Z,95.79
2018-12-25T09:20:05.959Z,95.69
2018-12-25T09:21:05.924Z,95.60
2018-12-25T09:22:05.909Z,95.22
2018-12-25T09:23:05.926Z,95.03
2018-12-25T09:24:05.870Z,95.22
2018-12-25T09:25:05.871Z,94.93
2018-12-25T09:26:05.839Z,94.65
2018-12-25T09:27:05.825Z,94.37
2018-12-25T09:28:05.828Z,94.65
2018-12-25T09:29:05.773Z,95.12
2018-12-25T09:30:05.767Z,95.22
2018-12-25T09:31:05.750Z,94.93
2018-12-25T09:32:05.716Z,95.31
2018-12-25T09:33:05.702Z,95.12
2018-12-25T09:34:05.683Z,94.84
2018-12-25T09:35:05.658Z,94.93
2018-12-25T09:36:05.645Z,94.93
2018-12-25T09:37:05.635Z,94.84
2018-12-25T09:38:05.641Z,95.12
2018-12-25T09:39:05.596Z,94.93
2018-12-25T09:40:05.564Z,94.84
2018-12-25T09:41:05.546Z,94.65
2018-12-25T09:42:05.583Z,94.84
2018-12-25T09:43:05.513Z,94.46
2018-12-25T09:44:05.742Z,94.65
2018-12-25T09:45:05.597Z,94.65
2018-12-25T09:46:06.271Z,95.12
2018-12-25T09:47:05.558Z,94.93
2018-12-25T09:48:13.092Z,94.37
2018-12-25T09:49:05.607Z,94.27
2018-12-25T09:50:05.376Z,94.27
2018-12-25T09:51:05.361Z,94.18
2018-12-25T09:52:05.350Z,94.27
2018-12-25T09:53:05.350Z,94.08
2018-12-25T09:54:05.305Z,94.56
2018-12-25T09:55:05.455Z,94.37
2018-12-25T09:56:05.685Z,93.99
2018-12-25T09:57:05.356Z,94.37
2018-12-25T09:58:06.212Z,94.46
2018-12-25T09:59:06.172Z,94.08
2018-12-25T10:00:05.409Z,93.89
2018-12-25T10:01:05.289Z,94.18
2018-12-25T10:02:05.264Z,94.18
2018-12-25T10:03:05.398Z,94.18
2018-12-25T10:04:05.383Z,94.27
2018-12-25T10:05:05.278Z,94.74
2018-12-25T10:06:05.087Z,94.84
2018-12-25T10:07:05.058Z,94.08
2018-12-25T10:08:05.055Z,94.18
2018-12-25T10:09:05.030Z,94.37
2018-12-25T10:10:05.075Z,94.65
2018-12-25T10:11:05.057Z,94.18
2018-12-25T10:12:05.239Z,93.80
2018-12-25T10:13:05.071Z,93.70
2018-12-25T10:14:05.028Z,93.99
2018-12-25T10:15:05.032Z,93.80
2018-12-25T10:16:04.991Z,93.89
2018-12-25T10:17:04.978Z,93.75
2018-12-25T10:18:04.977Z,92.42
2018-12-25T10:19:05.038Z,91.94
2018-12-25T10:20:04.926Z,92.04
2018-12-25T10:21:04.935Z,92.04
2018-12-25T10:22:05.311Z,92.14
2018-12-25T10:23:04.764Z,92.42
2018-12-25T10:24:04.750Z,92.90
2018-12-25T10:25:04.725Z,91.19
2018-12-25T10:26:04.705Z,90.43
2018-12-25T10:27:05.249Z,89.76
2018-12-25T10:28:04.659Z,90.33
2018-12-25T10:29:04.962Z,89.95
2018-12-25T10:30:04.638Z,89.10
2018-12-25T10:31:04.617Z,89.10
2018-12-25T10:32:04.596Z,89.39
2018-12-25T10:33:04.575Z,89.86
2018-12-25T10:34:04.564Z,89.00
2018-12-25T10:35:04.543Z,89.39
2018-12-25T10:36:04.511Z,88.24
2018-12-25T10:37:04.500Z,87.96
2018-12-25T10:38:04.480Z,87.96
2018-12-25T10:39:04.451Z,88.43
2018-12-25T10:40:04.466Z,88.62
2018-12-25T10:41:04.428Z,88.62
2018-12-25T10:42:04.414Z,87.58
2018-12-25T10:43:04.379Z,87.30
2018-12-25T10:44:04.374Z,87.68
2018-12-25T10:45:04.441Z,87.20
2018-12-25T10:46:04.325Z,87.30
2018-12-25T10:47:04.318Z,87.11
2018-12-25T10:48:04.296Z,87.20
2018-12-25T10:49:04.286Z,87.11
2018-12-25T10:50:04.249Z,86.44
2018-12-25T10:51:04.272Z,86.82
2018-12-25T10:52:11.327Z,87.49
2018-12-25T10:53:04.200Z,86.72
2018-12-25T10:54:04.184Z,86.35
2018-12-25T10:55:04.177Z,86.16
2018-12-25T10:56:04.152Z,85.97
2018-12-25T10:57:04.125Z,86.16
2018-12-25T10:58:04.633Z,86.72
2018-12-25T10:59:04.085Z,86.82
2018-12-25T11:00:04.124Z,86.63
2018-12-25T11:01:04.045Z,87.01
2018-12-25T11:02:04.030Z,86.91
2018-12-25T11:03:04.013Z,86.82
2018-12-25T11:04:03.995Z,86.82
2018-12-25T11:05:03.971Z,86.91
2018-12-25T11:06:03.978Z,86.82
2018-12-25T11:07:03.928Z,86.72
2018-12-25T11:08:03.922Z,86.72
2018-12-25T11:09:03.892Z,87.01
2018-12-25T11:10:03.873Z,86.82
2018-12-25T11:11:03.933Z,87.49
2018-12-25T11:12:03.844Z,87.68
2018-12-25T11:13:03.826Z,88.34
2018-12-25T11:14:03.811Z,88.43
2018-12-25T11:15:03.788Z,87.68
2018-12-25T11:16:03.762Z,87.68
2018-12-25T11:17:03.783Z,88.43
2018-12-25T11:18:03.733Z,89.00
2018-12-25T11:19:03.715Z,88.81
2018-12-25T11:20:11.224Z,88.81
2018-12-25T11:21:03.681Z,88.43
2018-12-25T11:22:03.649Z,88.72
2018-12-25T11:23:03.658Z,88.34
2018-12-25T11:24:03.624Z,88.34
2018-12-25T11:25:03.592Z,88.81
2018-12-25T11:26:03.583Z,88.81
2018-12-25T11:27:03.555Z,88.81
2018-12-25T11:28:03.591Z,89.48
2018-12-25T11:29:03.518Z,88.53
2018-12-25T11:30:03.513Z,88.72
2018-12-25T11:31:03.485Z,89.00
2018-12-25T11:32:03.464Z,89.10
2018-12-25T11:33:03.452Z,89.00
2018-12-25T11:34:03.467Z,88.91
2018-12-25T11:35:03.424Z,88.72
2018-12-25T11:36:03.390Z,89.20
2018-12-25T11:37:03.381Z,89.39
2018-12-25T11:38:03.351Z,89.20
2018-12-25T11:39:03.384Z,89.00
2018-12-25T11:40:03.334Z,89.00
2018-12-25T11:41:03.300Z,89.10
2018-12-25T11:42:03.297Z,88.34
2018-12-25T11:43:03.282Z,88.53
2018-12-25T11:44:03.260Z,88.43
2018-12-25T11:45:03.255Z,88.53
2018-12-25T11:46:03.425Z,88.62
2018-12-25T11:47:03.283Z,88.81
2018-12-25T11:48:03.273Z,88.81
2018-12-25T11:49:03.167Z,89.00
2018-12-25T11:50:03.136Z,89.10
2018-12-25T11:51:03.122Z,89.48
2018-12-25T11:52:03.130Z,89.29
2018-12-25T11:53:03.766Z,89.00
2018-12-25T11:54:03.052Z,89.00
2018-12-25T11:55:03.050Z,89.48
2018-12-25T11:56:03.022Z,89.67
2018-12-25T11:57:03.150Z,89.39
2018-12-25T11:58:02.992Z,88.91
2018-12-25T11:59:02.978Z,88.91
2018-12-25T12:00:02.953Z,88.62
2018-12-25T12:01:02.924Z,88.62
2018-12-25T12:02:02.957Z,88.81
2018-12-25T12:03:02.890Z,89.20
2018-12-25T12:04:02.894Z,90.05
2018-12-25T12:05:02.859Z,90.33
2018-12-25T12:06:02.845Z,90.81
2018-12-25T12:07:02.812Z,90.90
2018-12-25T12:08:02.853Z,91.09
2018-12-25T12:09:02.843Z,91.00
2018-12-25T12:10:02.771Z,90.52
2018-12-25T12:11:02.738Z,90.33
2018-12-25T12:12:02.729Z,90.81
2018-12-25T12:13:02.709Z,90.43
2018-12-25T12:14:02.688Z,90.05
2018-12-25T12:15:02.940Z,89.95
2018-12-25T12:16:02.741Z,90.05
2018-12-25T12:17:02.724Z,90.05
2018-12-25T12:18:02.838Z,90.24
2018-12-25T12:19:02.729Z,90.43
2018-12-25T12:20:02.707Z,90.71
2018-12-25T12:21:02.928Z,90.90
2018-12-25T12:22:02.622Z,90.52
2018-12-25T12:23:02.621Z,90.52
2018-12-25T12:24:02.510Z,90.24
2018-12-25T12:25:02.483Z,90.33
2018-12-25T12:26:02.468Z,90.33
2018-12-25T12:27:02.484Z,90.33
2018-12-25T12:28:03.184Z,90.43
2018-12-25T12:29:03.137Z,90.71
2018-12-25T12:30:02.625Z,90.52
2018-12-25T12:31:03.796Z,90.71
2018-12-25T12:32:03.785Z,90.33
2018-12-25T12:33:02.951Z,90.52
2018-12-25T12:34:02.863Z,91.09
2018-12-25T12:35:02.925Z,90.71
2018-12-25T12:36:03.372Z,90.52
2018-12-25T12:37:03.099Z,90.52
2018-12-25T12:38:02.819Z,90.62
2018-12-25T12:39:03.015Z,90.62
2018-12-25T12:40:02.608Z,90.81
2018-12-25T12:41:03.001Z,90.81
2018-12-25T12:42:02.239Z,90.90
2018-12-25T12:43:02.830Z,91.00
2018-12-25T12:44:02.818Z,91.28
2018-12-25T12:45:02.555Z,91.66
2018-12-25T12:46:02.476Z,91.47
2018-12-25T12:47:02.816Z,91.19
2018-12-25T12:48:02.878Z,91.09
2018-12-25T12:49:02.029Z,90.90
2018-12-25T12:50:02.034Z,91.19
2018-12-25T12:51:03.425Z,91.38
2018-12-25T12:52:02.547Z,91.56